Tiempo atmosférico en la estación meteorológica de Alajar, Huelva (572 m.)

Fecha
DESCASC
Temp. máxima en grados centígrados (hora)
DESCASC
Temp. mínima en grados centígrados (hora)
DESCASC
Temp. media en grados centígrados
DESCASC
Racha de viento máxima en m/sg (hora)
DESCASC
Velocidad máxima media en intervalos de 10 minutos(hora)
DESCASC
Precipitaciones diarias en mm
DESCASC
Precipitaciones de 00:00 a 06:00 en mm
DESCASC
Precipitaciones de 06:00 a 12:00 en mm
DESCASC
Precipitaciones de 12:00 a 18:00 en mm
DESCASC
Precipitaciones de 18:00 a 24:00 en mm
DESCASC
23-11-2017 19.8 (14:50) 10.9 (00:00) 15.3 8.61 (15:00) 4.17 (16:30) 0 0 0 0 0
22-11-2017 21.3 (14:40) 9.7 (05:50) 15.5 8.06 (15:50) 4.72 (16:40) 0 0 0 0 0
21-11-2017 23 (14:20) 10.7 (03:10) 16.8 6.39 (14:50) 3.61 (16:00) 0 0 0 0 0
20-11-2017 23.1 (14:30) 10.9 (23:30) 17 5.28 (12:30) 3.61 (07:40) 0 0 0 0 0
19-11-2017 22.3 (14:40) 10 (00:00) 16.1 6.94 (11:20) 3.89 (13:10) 0 0 0 0 0
18-11-2017 22.9 (15:50) 9.9 (00:00) 16.4 4.72 (14:00) 2.78 (14:50) 0 0 0 0 0
17-11-2017 22.8 (15:50) 8.8 (00:00) 15.8 5.28 (22:00) 3.06 (14:40) 0 0 0 0 0
16-11-2017 22 (15:20) 8.2 (00:00) 15.1 4.72 (12:30) 2.78 (11:40) 0 0 0 0 0
15-11-2017 19.9 (15:40) 6.1 (00:00) 13 7.78 (20:40) 4.72 (20:20) 0 0 0 0 0
14-11-2017 19.9 (14:50) 7.3 (00:00) 13.6 8.33 (12:40) 4.72 (12:50) 0 0 0 0 0
13-11-2017 19.7 (15:40) 9.6 (00:00) 14.7 13.89 (07:10) 10 (07:20) 0 0 0 0 0
12-11-2017 21.5 (14:40) 11 (00:00) 16.3 11.39 (22:20) 7.78 (22:10) 0 0 0 0 0
11-11-2017 21.8 (15:10) 10.9 (00:00) 16.3 13.61 (23:40) 8.61 (23:00) 0 0 0 0 0
10-11-2017 17.1 (15:40) 7.1 (00:00) 12.1 12.22 (14:40) 7.22 (15:20) 0 0 0 0 0
09-11-2017 15.6 (14:40) 7.3 (00:00) 11.5 15 (10:30) 8.06 (08:40) 0 0 0 0 0
08-11-2017 19.2 (14:20) 10.5 (00:00) 14.9 13.33 (19:40) 9.17 (19:40) 0 0 0 0 0
07-11-2017 20 (15:30) 6.9 (00:00) 13.5 11.39 (22:40) 8.33 (22:40) 0 0 0 0 0
06-11-2017 19.1 (15:50) 10.1 (00:00) 14.6 11.94 (00:10) 7.22 (00:10) 0 0 0 0 0
05-11-2017 18.4 (16:00) 10.3 (00:00) 14.3 12.22 (23:30) 7.5 (23:20) 0.2 0 0.2 0 0
04-11-2017 17.5 (13:20) 12.2 (00:00) 14.8 10.56 (15:20) 5.28 (23:00) 1.8 0.6 0.4 0.8 0
03-11-2017 19.7 (13:30) 12.4 (00:00) 16.1 9.72 (23:50) 5.56 (16:40) 10 9.2 0.2 0 0.6
02-11-2017 17.1 (16:10) 14.3 (07:40) 15.7 12.5 (05:30) 6.11 (10:10) 0.2 0 0.2 0 0
01-11-2017 21.6 (14:00) 11.4 (00:00) 16.5 9.72 (12:30) 5.56 (15:50) 0 0 0 0 0
31-10-2017 23.7 (15:20) 11.4 (00:00) 17.6 6.94 (14:10) 3.33 (15:50) 0 0 0 0 0
30-10-2017 25.9 (14:40) 14.3 (00:00) 20.1 6.11 (14:10) 3.61 (16:30) 0 0 0 0 0
29-10-2017 27.7 (14:50) 13 (00:00) 20.4 5.56 (15:50) 3.06 (22:50) 0 0 0 0 0
28-10-2017 30.6 (16:00) 17.2 (00:00) 23.9 7.78 (11:30) 3.89 (06:20) 0 0 0 0 0
27-10-2017 30.9 (15:20) 17 (00:00) 23.9 8.06 (01:10) 5.56 (20:30) 0 0 0 0 0
26-10-2017 29.5 (16:20) 15.9 (00:00) 22.7 7.22 (10:20) 3.89 (23:00) 0 0 0 0 0

Gráficas

Temp. máximas Temp. mínimas Temp. medias Precipitaciones Rachas de viento máximas Velocidades máximas media en intervalos de 10 minutos

Datos horarios

Fecha y hora oficial Temperatura (ºC) Velocidad del viento (km/h) Dirección del viento Racha (km/h) Dirección de racha Precipitación (mm) Presión (hPa) Tendencia (hPa) Humedad (%)
2017-11-24 23:00:00 13.5 5 Este 10 Este 0 953.9 0 41
2017-11-24 22:00:00 13.6 8 Este 13 Este 0 954 0.3 41
2017-11-24 21:00:00 12.9 6 Este 10 Nordeste 0 954.2 0.8 45
2017-11-24 20:00:00 13.7 6 Este 10 Este 0 953.9 0.5 45
2017-11-24 19:00:00 14.9 4 Este 7 Sudoeste 0 953.7 0.6 43
2017-11-24 18:00:00 17.6 4 Sudoeste 16 Sudoeste 0 953.4 0.3 36
2017-11-24 17:00:00 19 12 Sudoeste 24 Sudoeste 0 953.4 -0.4 33
2017-11-24 16:00:00 20.2 16 Sudoeste 27 Sudoeste 0 953.1 -1 28
2017-11-24 15:00:00 21.5 15 Sudoeste 33 Sudoeste 0 953.1 -1.6 27
2017-11-24 14:00:00 20.9 14 Sudoeste 28 Sudoeste 0 953.8 -1 29
2017-11-24 13:00:00 20.5 14 Sur 22 Sur 0 954.1 -0.5 31
2017-11-24 12:00:00 19.2 6 Sudoeste 12 Sudoeste 0 954.7 0.5 34
2017-11-24 11:00:00 16.5 4 Sur 9 Sur 0 954.8 1.2 42
2017-11-24 10:00:00 13.8 4 Este 9 Nordeste 0 954.6 1.2 61
2017-11-24 09:00:00 11.5 8 Nordeste 10 Nordeste 0 954.2 0.8 84
2017-11-24 08:00:00 11.7 7 Este 12 Este 0 953.6 0.4 87
2017-11-24 07:00:00 12.4 6 Este 13 Sur 0 953.4 0 89
2017-11-24 06:00:00 13.9 3 Sudoeste 10 Sudeste 0 953.4 -0.1 87
2017-11-24 05:00:00 13.9 5 Sudeste 10 Sudeste 0 953.2 0 85
2017-11-24 04:00:00 14 2 Sudeste 8 Sur 0 953.4 0 85
2017-11-24 03:00:00 14.3 4 Sudoeste 8 Sudoeste 0 953.5 -0.3 84
2017-11-24 02:00:00 14.5 2 Sudeste 13 Sudoeste 0 953.2 -0.5 80
2017-11-24 01:00:00 14.6 6 Sudoeste 15 Sudoeste 0 953.4 -0.2 80
2017-11-24 00:00:00 14.4 5 Sudoeste 12 Sudoeste 0 953.8 0.3 72
2017-11-23 23:00:00 14.1 6 Sudoeste 15 Noroeste 0 953.7 0.6 68
2017-11-23 22:00:00 14 6 Sudoeste 14 Sudoeste 0 953.6 0.8 58
2017-11-23 21:00:00 14.7 6 Sudoeste 19 Sur 0 953.5 1.2 48
2017-11-23 20:00:00 14.9 5 Sur 20 Sudoeste 0 953.1 1.1 50
2017-11-23 19:00:00 15.4 5 Sur 26 Sudoeste 0 952.8 0.9 52
2017-11-23 18:00:00 16.7 10 Sur 28 Sudoeste 0 952.3 0.3 50
2017-11-23 17:00:00 18 12 Sur 30 Sudoeste 0 952 -0.4 38
2017-11-23 16:00:00 19.3 14 Sudoeste 29 Sudoeste 0 951.9 -0.9 31
2017-11-23 15:00:00 19.4 13 Sur 31 Sur 0 952 -1.1 36
2017-11-23 14:00:00 19 10 Sur 26 Sudeste 0 952.4 -0.6 47
2017-11-23 13:00:00 16.7 5 Sudeste 17 Sudeste 0 952.8 0.3 62
2017-11-23 12:00:00 15.1 6 Sudeste 16 Sudeste 0 953.1 1.2 75
2017-11-23 11:00:00 13.9 6 Sur 13 Sur 0 953 1.9 83
2017-11-23 10:00:00 12.9 5 Sudeste 13 Sur 0 952.5 2.1 86
2017-11-23 09:00:00 12.5 5 Sur 12 Sur 0 951.9 1.8 92
2017-11-23 08:00:00 12.8 4 Sudeste 10 Sudeste 0 951.1 1.1 91
2017-11-23 07:00:00 12.8 3 Sudeste 9 Sudeste 0 950.4 0.4 92
2017-11-23 06:00:00 12.8 2 Este 6 Sudeste 0 950.1 0.4 92
2017-11-23 05:00:00 12.7 3 Este 6 Sudeste 0 950 0.1 90
2017-11-23 04:00:00 12.6 2 Este 6 Nordeste 0 950 0 89
2017-11-23 03:00:00 12.2 5 Nordeste 7 Este 0 949.7 -0.1 87
2017-11-23 02:00:00 11.9 4 Nordeste 7 Sudoeste 0 949.9 0.2 83
2017-11-23 01:00:00 11.3 3 Norte 9 Noroeste 0 950 0.3 60
2017-11-23 00:00:00 10.9 3 Norte 11 Nordeste 0 949.8 0.3 44
2017-11-22 23:00:00 12.1 6 Nordeste 10 Nordeste 0 949.7 0.3 40
2017-11-22 22:00:00 12.7 6 Nordeste 9 Nordeste 0 949.7 0.6 47
2017-11-22 21:00:00 12.3 3 Nordeste 7 Nordeste 0 949.5 0.8 47
2017-11-22 20:00:00 12.4 3 Noroeste 10 Sudoeste 0 949.4 0.7 42
2017-11-22 19:00:00 14.7 6 Sudoeste 14 Sudoeste 0 949.1 0.6 34
2017-11-22 18:00:00 16.6 10 Sudoeste 23 Sudoeste 0 948.7 -0.1 29
2017-11-22 17:00:00 19.4 15 Sudoeste 27 Sudoeste 0 948.7 -0.6 22
2017-11-22 16:00:00 20.7 15 Sudoeste 29 Sudoeste 0 948.5 -1.7 21
2017-11-22 15:00:00 21.1 15 Sudoeste 25 Sudoeste 0 948.8 -2.1 22
2017-11-22 14:00:00 20.5 12 Sudoeste 25 Sudoeste 0 949.3 -1.3 25
2017-11-22 13:00:00 18.9 15 Sur 24 Sudoeste 0 950.2 -0.3 30
2017-11-22 12:00:00 18.5 12 Sudoeste 20 Sudoeste 0 950.9 0.7 31
2017-11-22 11:00:00 17.7 7 Sudoeste 11 Sudoeste 0 950.6 0.6 31
2017-11-22 10:00:00 14.8 0 Calma 9 Este 0 950.5 0.6 44
2017-11-22 09:00:00 11.2 3 Nordeste 12 Nordeste 0 950.2 0 49
2017-11-22 08:00:00 10 5 Nordeste 14 Nordeste 0 950 -0.3 47
2017-11-22 07:00:00 10.6 7 Nordeste 12 Nordeste 0 949.9 -1 46
2017-11-22 06:00:00 9.9 0 Calma 9 Nordeste 0 950.2 -0.8 51
2017-11-22 05:00:00 10.6 6 Nordeste 13 Este 0 950.3 -1.2 53
2017-11-22 04:00:00 10.1 4 Norte 13 Nordeste 0 950.9 -1.4 59
2017-11-22 03:00:00 10.4 7 Nordeste 13 Nordeste 0 951 -1.6 58
2017-11-22 02:00:00 10.8 5 Nordeste 12 Nordeste 0 951.5 -1.2 51
2017-11-22 01:00:00 11.3 7 Nordeste 12 Nordeste 0 952.3 -0.5 51
2017-11-22 00:00:00 10.8 0 Calma 12 Nordeste 0 952.6 -0.3 46
2017-11-21 23:00:00 12 9 Nordeste 13 Nordeste 0 952.7 -0.2 41
2017-11-21 22:00:00 11.8 3 Nordeste 11 Nordeste 0 952.8 -0.2 43
2017-11-21 21:00:00 11.7 5 Nordeste 12 Nordeste 0 952.9 0 45
2017-11-21 20:00:00 12.6 8 Nordeste 14 Nordeste 0 952.9 0 42
2017-11-21 19:00:00 13.8 3 Norte 13 Sudoeste 0 953 0.1 37
2017-11-21 18:00:00 18 8 Sudoeste 18 Sudoeste 0 952.9 -0.4 26
2017-11-21 17:00:00 21.1 10 Sur 21 Sudeste 0 952.9 -1.1 21
2017-11-21 16:00:00 21.8 13 Sur 21 Sur 0 952.9 -1.6 19
2017-11-21 15:00:00 22.4 9 Sur 23 Sur 0 953.3 -1.9 20
2017-11-21 14:00:00 22.7 11 Sudoeste 23 Sudoeste 0 954 -1.5 19
2017-11-21 13:00:00 22.1 7 Sur 18 Sur 0 954.5 -0.8 21
2017-11-21 12:00:00 20.6 11 Sur 17 Sur 0 955.2 0.2 23
2017-11-21 11:00:00 18.5 8 Sudeste 17 Este 0 955.5 0.8 27
2017-11-21 10:00:00 16.3 6 Sudeste 12 Sudeste 0 955.3 0.9 33
2017-11-21 09:00:00 12.6 7 Nordeste 9 Este 0 955 0.5 41
2017-11-21 08:00:00 12 7 Nordeste 11 Este 0 954.7 0 38
2017-11-21 07:00:00 12.2 9 Nordeste 12 Nordeste 0 954.4 -0.5 37
2017-11-21 06:00:00 12.2 6 Nordeste 9 Nordeste 0 954.5 -0.5 36
2017-11-21 05:00:00 10.9 0 Calma 3 Nordeste 0 954.7 -0.3 39
2017-11-21 04:00:00 11 2 Este 10 Nordeste 0 954.9 -0.4 39
2017-11-21 03:00:00 11 3 Sudeste 10 Nordeste 0 955 -0.5 40
2017-11-21 02:00:00 13 8 Nordeste 13 Nordeste 0 955 -0.7 36
2017-11-21 01:00:00 12.3 8 Nordeste 12 Nordeste 0 955.3 -0.3 40
2017-11-21 00:00:00 11.2 6 Nordeste 10 Nordeste 0 955.5 -0.2 50
2017-11-20 23:00:00 11.1 8 Nordeste 12 Nordeste 0 955.7 0.2 48
2017-11-20 22:00:00 11.4 8 Nordeste 12 Nordeste 0 955.6 0.6 43
2017-11-20 21:00:00 11.9 3 Este 10 Nordeste 0 955.7 1.2 41
2017-11-20 20:00:00 12.6 2 Oeste 6 Noroeste 0 955.5 0.9 40
2017-11-20 19:00:00 14.3 6 Norte 12 Nordeste 0 955 0.4 36
2017-11-20 18:00:00 18.8 3 Sudoeste 12 Sur 0 954.5 -0.5 26
2017-11-20 17:00:00 21.8 7 Sur 16 Sur 0 954.6 -0.9 21
2017-11-20 16:00:00 22.1 9 Sur 15 Sur 0 954.6 -1.5 20
2017-11-20 15:00:00 22.3 6 Sudeste 17 Sur 0 955 -1.5 20
2017-11-20 14:00:00 22.2 7 Sur 17 Sudeste 0 955.5 -0.9 18
2017-11-20 13:00:00 21.6 8 Sur 19 Sur 0 956.1 0.3 19
2017-11-20 12:00:00 21.1 9 Sur 18 Sur 0 956.5 1 20
2017-11-20 11:00:00 18.8 8 Sudeste 18 Sudeste 0 956.4 1.4 26
2017-11-20 10:00:00 16.6 6 Sudeste 18 Sudeste 0 955.8 1.1 31
2017-11-20 09:00:00 14.5 7 Este 17 Este 0 955.5 1 38
2017-11-20 08:00:00 12.7 11 Este 18 Este 0 955 0.7 46
2017-11-20 07:00:00 12.5 12 Este 17 Este 0 954.7 0.3 44
2017-11-20 06:00:00 14.2 10 Este 17 Este 0 954.5 0 37
2017-11-20 05:00:00 13.1 12 Este 14 Este 0 954.3 -0.3 41
2017-11-20 04:00:00 13.1 8 Este 14 Este 0 954.4 -0.4 42
2017-11-20 03:00:00 12.9 8 Este 10 Este 0 954.5 -0.5 37
2017-11-20 02:00:00 11.9 6 Este 12 Este 0 954.6 -0.4 40
2017-11-20 01:00:00 12.5 5 Nordeste 9 Este 0 954.8 0.1 38
2017-11-20 00:00:00 12.5 3 Nordeste 8 Nordeste 0 955 0.5 39
2017-11-19 23:00:00 12.3 6 Nordeste 11 Este 0 955 0.8 42
2017-11-19 22:00:00 12.7 8 Nordeste 14 Nordeste 0 954.7 0.9 43
2017-11-19 21:00:00 12.2 4 Noroeste 13 Este 0 954.5 1 45
2017-11-19 20:00:00 13 7 Nordeste 12 Nordeste 0 954.2 1.2 43
2017-11-19 19:00:00 14.6 8 Nordeste 11 Nordeste 0 953.8 0.9 40
2017-11-19 18:00:00 18.6 3 Sudoeste 17 Sudeste 0 953.5 0.6 29
2017-11-19 17:00:00 21.2 8 Sur 17 Sur 0 953 -0.3 24
2017-11-19 16:00:00 21.7 9 Sudeste 21 Sur 0 952.9 -0.9 23
2017-11-19 15:00:00 21.7 10 Sudeste 24 Sur 0 952.9 -1.4 23
2017-11-19 14:00:00 22.1 12 Sur 23 Sur 0 953.3 -0.7 24
2017-11-19 13:00:00 21.3 12 Sur 21 Sur 0 953.8 0 25
2017-11-19 12:00:00 19.8 8 Sudeste 25 Sur 0 954.3 0.9 29
2017-11-19 11:00:00 18.4 11 Sur 18 Sudeste 0 954 1.1 33
2017-11-19 10:00:00 15.3 4 Este 11 Sudeste 0 953.8 1.2 41
2017-11-19 09:00:00 12.2 6 Nordeste 12 Este 0 953.4 1.2 48
2017-11-19 08:00:00 11.4 8 Nordeste 13 Nordeste 0 952.9 0.9 48
2017-11-19 07:00:00 10.4 6 Nordeste 11 Nordeste 0 952.6 0.3 55
2017-11-19 06:00:00 10.5 6 Nordeste 10 Nordeste 0 952.2 0 56
2017-11-19 05:00:00 10.7 0 Calma 9 Nordeste 0 952 -0.1 55
2017-11-19 04:00:00 12.1 8 Nordeste 10 Nordeste 0 952.3 0 50
2017-11-19 03:00:00 11.7 3 Este 8 Nordeste 0 952.2 -0.2 52
2017-11-19 02:00:00 11.4 0 Calma 9 Nordeste 0 952.1 -0.2 53
2017-11-19 01:00:00 12.2 5 Nordeste 10 Nordeste 0 952.3 -0.1 49
2017-11-19 00:00:00 13 5 Nordeste 7 Este 0 952.4 0.1 46
2017-11-18 23:00:00 13.2 5 Nordeste 10 Nordeste 0 952.3 0 48
2017-11-18 22:00:00 12.5 3 Norte 8 Este 0 952.4 0.4 50
2017-11-18 21:00:00 11.7 5 Norte 9 Noroeste 0 952.3 0.6 57
2017-11-18 20:00:00 13 3 Norte 6 Noroeste 0 952.3 0.9 52
2017-11-18 19:00:00 14.6 2 Este 6 Noroeste 0 952 0.8 46
2017-11-18 18:00:00 18.7 3 Oeste 11 Oeste 0 951.7 0.4 34
2017-11-18 17:00:00 21.9 7 Sudoeste 17 Sudoeste 0 951.4 -0.5 26
2017-11-18 16:00:00 22.7 9 Sudoeste 16 Sur 0 951.2 -1.2 26
2017-11-18 15:00:00 22.4 5 Sur 17 Sur 0 951.3 -1.5 25
2017-11-18 14:00:00 21.9 6 Sur 17 Sur 0 951.9 -1 26
2017-11-18 13:00:00 21.9 9 Sudoeste 17 Sur 0 952.4 -0.4 29
2017-11-18 12:00:00 20.8 8 Sur 14 Sur 0 952.8 0.4 28
2017-11-18 11:00:00 18.3 4 Sur 8 Sudeste 0 952.9 0.8 33
2017-11-18 10:00:00 14.6 0 Calma 4 Noroeste 0 952.8 0.9 42
2017-11-18 09:00:00 11.1 3 Nordeste 9 Nordeste 0 952.4 0.7 52
2017-11-18 08:00:00 10 2 Noroeste 9 Nordeste 0 952.1 0.4 50
2017-11-18 07:00:00 10.2 5 Nordeste 11 Nordeste 0 951.9 -0.2 50
2017-11-18 06:00:00 10.8 0 Calma 9 Este 0 951.7 -0.3 48
2017-11-18 05:00:00 12.2 3 Nordeste 10 Nordeste 0 951.7 -0.5 42
2017-11-18 04:00:00 12.3 3 Noroeste 12 Nordeste 0 952.1 -0.5 39
2017-11-18 03:00:00 12.6 7 Nordeste 10 Nordeste 0 952 -0.8 41
2017-11-18 02:00:00 12.6 6 Nordeste 11 Nordeste 0 952.2 -0.5 40
2017-11-18 01:00:00 12.3 3 Noroeste 9 Nordeste 0 952.6 0.1 45
2017-11-18 00:00:00 13.4 4 Norte 11 Nordeste 0 952.8 0.4 43
2017-11-17 23:00:00 13.6 5 Nordeste 16 Nordeste 0 952.7 0.3 44
2017-11-17 22:00:00 14.5 9 Nordeste 19 Nordeste 0 952.5 0.4 45
2017-11-17 21:00:00 14.5 5 Nordeste 14 Norte 0 952.4 0.6 45
2017-11-17 20:00:00 13.6 3 Oeste 7 Norte 0 952.4 0.7 49
2017-11-17 19:00:00 14.4 3 Nordeste 7 Norte 0 952.1 0.4 47
2017-11-17 18:00:00 18.5 4 Noroeste 11 Sudoeste 0 951.8 -0.4 36
2017-11-17 17:00:00 21.6 8 Sudoeste 16 Sur 0 951.7 -1 29
2017-11-17 16:00:00 22.1 9 Oeste 17 Sudoeste 0 951.7 -1.7 28
2017-11-17 15:00:00 22.2 6 Sudoeste 18 Sudoeste 0 952.2 -2 29
2017-11-17 14:00:00 21.3 7 Sur 17 Sudoeste 0 952.7 -1.4 30
2017-11-17 13:00:00 21 8 Sur 18 Sur 0 953.4 -0.3 30
2017-11-17 12:00:00 19.4 7 Sudoeste 12 Sur 0 954.2 0.8 34
2017-11-17 11:00:00 16.8 7 Sudoeste 11 Sudoeste 0 954.1 1.2 39
2017-11-17 10:00:00 13.5 0 Calma 4 Oeste 0 953.7 1.1 52
2017-11-17 09:00:00 10.6 0 Calma 12 Nordeste 0 953.4 0.8 51
2017-11-17 08:00:00 8.8 3 Nordeste 10 Nordeste 0 952.9 0.3 57
2017-11-17 07:00:00 9.2 6 Nordeste 10 Nordeste 0 952.6 -0.2 62
2017-11-17 06:00:00 9.9 0 Calma 8 Este 0 952.6 -0.3 58
2017-11-17 05:00:00 10.9 5 Nordeste 11 Nordeste 0 952.6 -0.4 54
2017-11-17 04:00:00 11.2 9 Nordeste 13 Nordeste 0 952.8 -0.6 57
2017-11-17 03:00:00 11.7 7 Nordeste 11 Nordeste 0 952.9 -0.4 53
2017-11-17 02:00:00 11.4 6 Nordeste 10 Nordeste 0 953 -0.4 53
2017-11-17 01:00:00 11 5 Nordeste 10 Nordeste 0 953.4 0.2 57
2017-11-17 00:00:00 10.1 6 Nordeste 10 Nordeste 0 953.3 0.3 62
2017-11-16 23:00:00 10.3 3 Norte 8 Nordeste 0 953.4 0.5 62
2017-11-16 22:00:00 10.7 3 Nordeste 9 Noroeste 0 953.2 0.6 64
2017-11-16 21:00:00 10.9 0 Calma 9 Nordeste 0 953 1 65
2017-11-16 20:00:00 12 0 Calma 8 Sudoeste 0 952.9 1.1 62
2017-11-16 19:00:00 14.2 5 Sur 7 Sudoeste 0 952.6 0.8 51
2017-11-16 18:00:00 17.8 4 Noroeste 13 Sudoeste 0 952 0 42
2017-11-16 17:00:00 20.9 7 Sudoeste 16 Sudoeste 0 951.8 -0.5 34
2017-11-16 16:00:00 21.7 9 Sudoeste 15 Sudoeste 0 951.8 -1.2 32
2017-11-16 15:00:00 21.5 9 Sudoeste 16 Sudoeste 0 952 -1.7 32
2017-11-16 14:00:00 21.4 7 Sur 14 Sudoeste 0 952.3 -1.5 32
2017-11-16 13:00:00 20.4 8 Sudoeste 17 Sudoeste 0 953 -0.4 33
2017-11-16 12:00:00 19.1 7 Sudoeste 15 Sudoeste 0 953.7 0.9 33
2017-11-16 11:00:00 16.6 6 Sudoeste 9 Sudoeste 0 953.8 1.5 40
2017-11-16 10:00:00 13 3 Oeste 4 Oeste 0 953.4 1.6 45
2017-11-16 09:00:00 9.9 0 Calma 7 Nordeste 0 952.8 0.9 59
2017-11-16 08:00:00 8.7 6 Nordeste 11 Nordeste 0 952.3 0.6 59
2017-11-16 07:00:00 8.5 5 Norte 10 Nordeste 0 951.8 0 58
2017-11-16 06:00:00 8.6 2 Noroeste 11 Nordeste 0 951.9 -0.1 58
2017-11-16 05:00:00 8.9 4 Nordeste 7 Nordeste 0 951.7 -0.4 57
2017-11-16 04:00:00 9.1 6 Nordeste 12 Nordeste 0 951.8 -0.4 57
2017-11-16 03:00:00 9 6 Nordeste 11 Nordeste 0 952 -0.2 57
2017-11-16 02:00:00 9.5 5 Nordeste 11 Nordeste 0 952.1 -0.3 62
2017-11-16 01:00:00 9.9 8 Nordeste 10 Nordeste 0 952.2 0.1 60
2017-11-16 00:00:00 9.8 8 Nordeste 11 Nordeste 0 952.2 0.2 58
2017-11-15 23:00:00 11.6 3 Nordeste 19 Norte 0 952.4 0.8 50
2017-11-15 22:00:00 12.6 11 Norte 28 Nordeste 0 952.1 0.5 57
2017-11-15 21:00:00 13.2 15 Norte 28 Norte 0 952 0.7 57
2017-11-15 20:00:00 13.6 16 Norte 23 Norte 0 951.6 0.3 55
2017-11-15 19:00:00 14.2 11 Norte 22 Nordeste 0 951.6 0.3 54
2017-11-15 18:00:00 15.6 9 Norte 16 Norte 0 951.3 -0.3 51
2017-11-15 17:00:00 18.2 9 Norte 17 Norte 0 951.3 -0.6 44
2017-11-15 16:00:00 19.7 9 Sudoeste 21 Sur 0 951.3 -1.3 41
2017-11-15 15:00:00 19.6 11 Sudoeste 22 Sudoeste 0 951.6 -1.7 41
2017-11-15 14:00:00 19.2 9 Sudoeste 23 Sudoeste 0 951.9 -1.5 44
2017-11-15 13:00:00 18.2 8 Oeste 21 Oeste 0 952.6 -0.6 46
2017-11-15 12:00:00 17.5 7 Sudoeste 18 Sur 0 953.3 0.5 50
2017-11-15 11:00:00 15 8 Oeste 18 Oeste 0 953.4 0.7 60
2017-11-15 10:00:00 12.3 7 Oeste 16 Oeste 0 953.2 1.2 67
2017-11-15 09:00:00 8 0 Calma 10 Nordeste 0 952.8 1.1 69
2017-11-15 08:00:00 6.5 6 Nordeste 12 Nordeste 0 952.7 1.2 75
2017-11-15 07:00:00 6.7 2 Oeste 8 Nordeste 0 952 0.3 56
2017-11-15 06:00:00 7.9 6 Nordeste 14 Nordeste 0 951.7 0.2 44
2017-11-15 05:00:00 8.3 6 Nordeste 12 Este 0 951.5 -0.1 43
2017-11-15 04:00:00 8.2 8 Este 12 Este 0 951.7 0.1 40
2017-11-15 03:00:00 8.8 5 Nordeste 9 Este 0 951.5 -0.2 36
2017-11-15 02:00:00 8.8 5 Nordeste 7 Nordeste 0 951.6 -0.3 36
2017-11-15 01:00:00 8.2 4 Norte 10 Nordeste 0 951.6 0.2 39
2017-11-15 00:00:00 8.6 2 Oeste 12 Nordeste 0 951.7 0.7 40
2017-11-14 23:00:00 9.5 5 Nordeste 9 Nordeste 0 951.9 1 38
2017-11-14 22:00:00 11.4 4 Noroeste 15 Nordeste 0 951.4 0.6 33
2017-11-14 21:00:00 11.8 8 Nordeste 19 Nordeste 0 951 0.4 32
2017-11-14 20:00:00 12.2 15 Nordeste 22 Nordeste 0 950.9 0.7 31
2017-11-14 19:00:00 12.2 14 Norte 19 Nordeste 0 950.8 0.6 29
2017-11-14 18:00:00 15.1 9 Nordeste 21 Este 0 950.6 0.1 21
2017-11-14 17:00:00 17.9 7 Este 29 Este 0 950.2 -0.9 14
2017-11-14 16:00:00 19 10 Este 23 Este 0 950.2 -1.6 15
2017-11-14 15:00:00 18.9 9 Este 22 Este 0 950.5 -2.1 16
2017-11-14 14:00:00 18.4 12 Norte 21 Norte 0 951.1 -1.7 21
2017-11-14 13:00:00 17.4 12 Norte 30 Nordeste 0 951.8 -0.9 24
2017-11-14 12:00:00 16.3 7 Este 17 Este 0 952.6 0.3 23
2017-11-14 11:00:00 14.3 4 Sudeste 13 Este 0 952.8 1 28
2017-11-14 10:00:00 12.1 6 Sur 15 Este 0 952.7 1.1 31
2017-11-14 09:00:00 10.6 8 Este 18 Este 0 952.3 0.8 25
2017-11-14 08:00:00 9.5 8 Este 11 Este 0 951.8 0.2 30
2017-11-14 07:00:00 7.8 5 Nordeste 10 Sudeste 0 951.6 0 33
2017-11-14 06:00:00 8.9 4 Este 8 Este 0 951.5 -0.1 34
2017-11-14 05:00:00 10 5 Este 18 Este 0 951.6 -0.2 43
2017-11-14 04:00:00 9.7 9 Este 20 Este 0 951.6 -0.2 50
2017-11-14 03:00:00 9.2 9 Nordeste 11 Nordeste 0 951.6 -0.1 52
2017-11-14 02:00:00 10.2 8 Este 15 Este 0 951.8 0.1 53
2017-11-14 01:00:00 11.1 7 Nordeste 15 Nordeste 0 951.8 0.2 59
2017-11-14 00:00:00 11.9 10 Este 15 Este 0 951.7 0.2 55
2017-11-13 23:00:00 12.2 9 Este 25 Nordeste 0 951.7 0.4 53
2017-11-13 22:00:00 12.1 14 Nordeste 23 Nordeste 0 951.6 0.5 51
2017-11-13 21:00:00 12.7 7 Nordeste 19 Nordeste 0 951.5 0.7 52
2017-11-13 20:00:00 13.8 8 Nordeste 30 Nordeste 0 951.3 0.8 50
2017-11-13 19:00:00 14.5 4 Nordeste 16 Norte 0 951.1 0.6 47
2017-11-13 18:00:00 16.5 6 Noroeste 23 Norte 0 950.8 0.1 40
2017-11-13 17:00:00 18.9 6 Nordeste 22 Este 0 950.5 -0.8 40
2017-11-13 16:00:00 19.2 12 Este 22 Norte 0 950.5 -1.2 37
2017-11-13 15:00:00 19.6 9 Este 21 Nordeste 0 950.7 -1.6 40
2017-11-13 14:00:00 18.4 8 Nordeste 31 Norte 0 951.3 -0.9 43
2017-11-13 13:00:00 18 8 Norte 42 Norte 0 951.7 -0.3 46
2017-11-13 12:00:00 16 22 Nordeste 39 Nordeste 0 952.3 0.9 52
2017-11-13 11:00:00 13.3 32 Norte 46 Norte 0 952.2 0.6 62
2017-11-13 10:00:00 13.6 27 Nordeste 43 Nordeste 0 952 0.5 58
2017-11-13 09:00:00 11.1 31 Nordeste 49 Nordeste 0 951.4 -0.7 70
2017-11-13 08:00:00 10.4 27 Norte 50 Norte 0 951.6 -0.6 73
2017-11-13 07:00:00 9.8 30 Nordeste 42 Nordeste 0 951.5 -1 77
2017-11-13 06:00:00 10.6 14 Norte 30 Nordeste 0 952.1 -0.8 70
2017-11-13 05:00:00 12.3 21 Norte 34 Norte 0 952.2 -0.8 58
2017-11-13 04:00:00 12.5 18 Nordeste 33 Nordeste 0 952.5 -1 56
2017-11-13 03:00:00 11.4 24 Nordeste 43 Nordeste 0 952.9 -0.8 65
2017-11-13 02:00:00 11.7 28 Nordeste 40 Nordeste 0 953 -0.9 65
2017-11-13 01:00:00 12.5 20 Nordeste 30 Nordeste 0 953.5 -0.4 61
2017-11-13 00:00:00 12.9 19 Nordeste 38 Norte 0 953.7 -0.2 61
2017-11-12 23:00:00 13.9 22 Norte 41 Norte 0 953.9 -0.3 59
2017-11-12 22:00:00 13.9 20 Norte 37 Norte 0 953.9 -0.2 60
2017-11-12 21:00:00 14.7 26 Norte 37 Nordeste 0 953.9 0 58
2017-11-12 20:00:00 14.8 23 Norte 37 Norte 0 954.2 0.4 58
2017-11-12 19:00:00 15.5 17 Nordeste 30 Nordeste 0 954.1 0.3 51
2017-11-12 18:00:00 17.7 8 Norte 23 Norte 0 953.9 -0.4 39
2017-11-12 17:00:00 20 12 Norte 28 Norte 0 953.8 -1.1 33
2017-11-12 16:00:00 20.9 12 Norte 33 Norte 0 953.8 -1.7 30
2017-11-12 15:00:00 21.1 14 Norte 31 Noroeste 0 954.3 -2.1 28
2017-11-12 14:00:00 20.3 14 Norte 28 Nordeste 0 954.9 -1.6 32
2017-11-12 13:00:00 19.7 14 Norte 32 Noroeste 0 955.5 -1 32
2017-11-12 12:00:00 19.6 10 Norte 20 Norte 0 956.4 0 31
2017-11-12 11:00:00 19.3 3 Sudoeste 13 Nordeste 0 956.5 0.2 37
2017-11-12 10:00:00 16.3 3 Sur 10 Norte 0 956.5 0.2 48
2017-11-12 09:00:00 13.8 7 Norte 12 Norte 0 956.4 -0.1 51
2017-11-12 08:00:00 13 9 Nordeste 14 Nordeste 0 956.3 0 51
2017-11-12 07:00:00 12.3 6 Nordeste 15 Norte 0 956.3 -0.1 49
2017-11-12 06:00:00 11.3 5 Noroeste 9 Nordeste 0 956.5 -0.3 52
2017-11-12 05:00:00 12.1 5 Norte 15 Norte 0 956.3 -0.6 51
2017-11-12 04:00:00 12.5 7 Norte 14 Norte 0 956.4 -1 49
2017-11-12 03:00:00 13.5 9 Norte 20 Norte 0 956.8 -0.7 51
2017-11-12 02:00:00 14.4 13 Norte 33 Norte 0 956.9 -0.9 50
2017-11-12 01:00:00 15 17 Norte 39 Norte 0 957.4 -0.6 48
2017-11-12 00:00:00 15.1 27 Norte 49 Nordeste 0 957.5 -0.7 49
2017-11-11 23:00:00 15.2 31 Norte 45 Nordeste 0 957.8 -0.5 48
2017-11-11 22:00:00 14.8 20 Norte 33 Nordeste 0 958 -0.3 48
2017-11-11 21:00:00 14.6 8 Sudeste 20 Este 0 958.2 0 48
2017-11-11 20:00:00 14.5 5 Norte 20 Nordeste 0 958.3 0 45
2017-11-11 19:00:00 15 8 Nordeste 14 Nordeste 0 958.3 0 47
2017-11-11 18:00:00 18.2 6 Nordeste 15 Nordeste 0 958.2 -0.5 37
2017-11-11 17:00:00 20.8 5 Norte 22 Este 0 958.3 -0.8 31
2017-11-11 16:00:00 21.2 9 Este 22 Nordeste 0 958.3 -1.7 30
2017-11-11 15:00:00 21.6 7 Nordeste 22 Norte 0 958.7 -2.1 29
2017-11-11 14:00:00 20.2 10 Norte 22 Nordeste 0 959.1 -1.7 33
2017-11-11 13:00:00 21.2 4 Sudoeste 15 Sur 0 960 -0.8 34
2017-11-11 12:00:00 20.2 10 Sudoeste 15 Sudoeste 0 960.8 0.2 37
2017-11-11 11:00:00 18.3 6 Sudoeste 11 Sudoeste 0 960.8 0.3 43
2017-11-11 10:00:00 15.7 5 Sudoeste 8 Sur 0 960.8 0.3 48
2017-11-11 09:00:00 13.5 4 Nordeste 18 Norte 0 960.6 0.1 54
2017-11-11 08:00:00 11.7 10 Nordeste 22 Norte 0 960.5 0.1 60
2017-11-11 07:00:00 11.9 3 Norte 27 Nordeste 0 960.5 -0.3 57
2017-11-11 06:00:00 11.8 13 Nordeste 26 Nordeste 0 960.5 -0.5 57
2017-11-11 05:00:00 11.9 12 Nordeste 24 Nordeste 0 960.4 -0.9 54
2017-11-11 04:00:00 11.7 18 Norte 26 Norte 0 960.8 -0.8 52
2017-11-11 03:00:00 12.1 16 Norte 24 Nordeste 0 961 -0.5 51
2017-11-11 02:00:00 12 10 Norte 24 Norte 0 961.3 -0.4 51
2017-11-11 01:00:00 11.4 13 Norte 19 Norte 0 961.6 -0.1 52
2017-11-11 00:00:00 10.9 7 Nordeste 19 Nordeste 0 961.5 0.1 52
2017-11-10 23:00:00 11.8 3 Sudeste 22 Nordeste 0 961.7 0.4 48
2017-11-10 22:00:00 12.2 11 Nordeste 25 Nordeste 0 961.7 0.9 48
2017-11-10 21:00:00 12.8 12 Nordeste 31 Nordeste 0 961.4 0.9 46
2017-11-10 20:00:00 12.5 8 Nordeste 23 Nordeste 0 961.3 1.1 47
2017-11-10 19:00:00 13.1 4 Este 19 Nordeste 0 960.8 0.8 45
2017-11-10 18:00:00 15 10 Nordeste 28 Nordeste 0 960.5 0.3 40
2017-11-10 17:00:00 16.6 11 Nordeste 33 Nordeste 0 960.2 -0.7 36
2017-11-10 16:00:00 17 18 Nordeste 44 Nordeste 0 960 -1.2 36
2017-11-10 15:00:00 16.9 23 Nordeste 44 Nordeste 0 960.2 -1.4 38
2017-11-10 14:00:00 16.6 15 Este 40 Nordeste 0 960.9 -0.5 38
2017-11-10 13:00:00 15.7 17 Nordeste 36 Este 0 961.2 0.3 40
2017-11-10 12:00:00 15 17 Este 39 Nordeste 0 961.6 1.1 42
2017-11-10 11:00:00 13.9 16 Nordeste 28 Nordeste 0 961.4 1.3 43
2017-11-10 10:00:00 12 10 Este 37 Nordeste 0 960.9 1.3 45
2017-11-10 09:00:00 10.2 17 Nordeste 32 Este 0 960.5 0.9 40
2017-11-10 08:00:00 9.2 19 Nordeste 40 Nordeste 0 960.1 0.6 42
2017-11-10 07:00:00 9.7 21 Nordeste 36 Nordeste 0 959.6 -0.1 39
2017-11-10 06:00:00 7.6 10 Nordeste 21 Nordeste 0 959.6 0.1 51
2017-11-10 05:00:00 7.5 6 Este 19 Nordeste 0 959.5 0.1 52
2017-11-10 04:00:00 7.9 9 Este 19 Este 0 959.7 0.5 52
2017-11-10 03:00:00 8 6 Este 14 Este 0 959.5 0.3 52
2017-11-10 02:00:00 8.4 6 Este 24 Este 0 959.4 0.3 50
2017-11-10 01:00:00 9 6 Este 24 Nordeste 0 959.2 0.2 48
2017-11-10 00:00:00 9.6 19 Nordeste 47 Nordeste 0 959.2 0.8 45
2017-11-09 23:00:00 9.9 22 Nordeste 37 Nordeste 0 959.1 1 44
2017-11-09 22:00:00 10.1 18 Nordeste 34 Nordeste 0 959 1.5 42
2017-11-09 21:00:00 10.4 18 Nordeste 39 Nordeste 0 958.4 1.4 41
2017-11-09 20:00:00 10.5 11 Este 34 Este 0 958.1 1.5 40
2017-11-09 19:00:00 11.3 15 Este 35 Este 0 957.5 1.1 38
2017-11-09 18:00:00 12.2 10 Este 36 Nordeste 0 957 0.7 35
2017-11-09 17:00:00 14.1 12 Este 30 Nordeste 0 956.6 0.2 32
2017-11-09 16:00:00 14.6 17 Este 37 Este 0 956.4 -0.9 30
2017-11-09 15:00:00 14.5 24 Nordeste 40 Nordeste 0 956.3 -1.5 28
2017-11-09 14:00:00 14.2 21 Nordeste 41 Nordeste 0 956.4 -1.4 29
2017-11-09 13:00:00 13.3 20 Nordeste 40 Nordeste 0 957.3 -0.1 32
2017-11-09 12:00:00 12.6 16 Este 44 Nordeste 0 957.8 0.8 33
2017-11-09 11:00:00 10.7 21 Este 54 Nordeste 0 957.8 1.9 36
2017-11-09 10:00:00 9.3 22 Nordeste 42 Nordeste 0 957.4 1.7 42
2017-11-09 09:00:00 8.3 18 Nordeste 47 Nordeste 0 957 1.8 47
2017-11-09 08:00:00 7.4 13 Nordeste 33 Este 0 955.9 0.8 51
2017-11-09 07:00:00 7.9 11 Nordeste 39 Nordeste 0 955.7 1 53
2017-11-09 06:00:00 9.2 27 Nordeste 46 Nordeste 0 955.2 0.5 50
2017-11-09 05:00:00 9.6 10 Nordeste 46 Nordeste 0 955.1 0.4 47
2017-11-09 04:00:00 10.6 26 Nordeste 48 Nordeste 0 954.7 -0.3 43
2017-11-09 03:00:00 11.6 27 Nordeste 49 Este 0 954.7 -0.2 40
2017-11-09 02:00:00 11.5 15 Nordeste 43 Nordeste 0 954.7 -0.6 42
2017-11-09 01:00:00 11 19 Nordeste 46 Nordeste 0 955 0.3 48
2017-11-09 00:00:00 10.8 27 Nordeste 42 Nordeste 0 954.9 0.2 44
2017-11-08 23:00:00 10.9 20 Nordeste 46 Nordeste 0 955.3 1.2 41
2017-11-08 22:00:00 11.7 30 Nordeste 47 Nordeste 0 954.7 1.2 42
2017-11-08 21:00:00 12.7 16 Nordeste 37 Norte 0 954.7 1.3 56
2017-11-08 20:00:00 12.6 30 Nordeste 48 Nordeste 0 954.1 0.7 56
2017-11-08 19:00:00 13 29 Nordeste 44 Nordeste 0 953.5 0.1 58
2017-11-08 18:00:00 15 19 Norte 33 Norte 0 953.4 -0.4 55
2017-11-08 17:00:00 17.4 13 Norte 35 Nordeste 0 953.4 -0.7 47
2017-11-08 16:00:00 17.8 14 Norte 33 Norte 0 953.4 -1.4 45
2017-11-08 15:00:00 18.1 13 Norte 25 Norte 0 953.8 -1.7 40
2017-11-08 14:00:00 18.9 7 Norte 23 Norte 0 954.1 -1.3 37
2017-11-08 13:00:00 17.4 11 Norte 27 Norte 0 954.8 -0.4 38
2017-11-08 12:00:00 17.2 12 Norte 23 Norte 0 955.5 0.8 44
2017-11-08 11:00:00 16.2 8 Noroeste 20 Norte 0 955.4 1.4 47
2017-11-08 10:00:00 14.3 12 Nordeste 31 Nordeste 0 955.2 1.6 54
2017-11-08 09:00:00 12.4 15 Norte 30 Norte 0 954.7 1.3 62
2017-11-08 08:00:00 11.6 21 Norte 36 Nordeste 0 954 0.8 64
2017-11-08 07:00:00 11.4 27 Norte 46 Norte 0 953.6 0 65
2017-11-08 06:00:00 11.6 29 Norte 43 Nordeste 0 953.4 -0.4 63
2017-11-08 05:00:00 12.4 30 Norte 42 Norte 0 953.2 -0.7 61
2017-11-08 04:00:00 12.4 3 Noroeste 23 Norte 0 953.6 -0.4 59
2017-11-08 03:00:00 12.2 17 Nordeste 33 Nordeste 0 953.8 -0.2 55
2017-11-08 02:00:00 12.2 23 Nordeste 34 Norte 0 953.9 0.1 53
2017-11-08 01:00:00 12.7 22 Nordeste 35 Nordeste 0 954 0.2 56
2017-11-08 00:00:00 12.8 17 Nordeste 37 Nordeste 0 954 0 55
2017-11-07 23:00:00 13.4 27 Norte 41 Norte 0 953.8 0.2 51
2017-11-07 22:00:00 13.2 22 Norte 31 Norte 0 953.8 0.5 49
2017-11-07 21:00:00 11.8 19 Norte 22 Norte 0 954 1.4 52
2017-11-07 20:00:00 13 15 Norte 21 Norte 0 953.6 0.9 46
2017-11-07 19:00:00 13.5 13 Norte 27 Nordeste 0 953.3 0.5 44
2017-11-07 18:00:00 16.6 19 Nordeste 31 Norte 0 952.6 -0.2 38
2017-11-07 17:00:00 18.8 11 Nordeste 36 Norte 0 952.7 -0.5 33
2017-11-07 16:00:00 19.4 9 Este 27 Norte 0 952.8 -0.6 29
2017-11-07 15:00:00 18.9 16 Norte 31 Norte 0 952.8 -1.1 32
2017-11-07 14:00:00 18.9 10 Nordeste 26 Norte 0 953.2 -0.5 31
2017-11-07 13:00:00 18.7 8 Norte 22 Norte 0 953.4 -0.4 35
2017-11-07 12:00:00 17.5 9 Este 20 Este 0 953.9 0.5 33
2017-11-07 11:00:00 15.7 5 Sudeste 13 Sudeste 0 953.7 0.8 40
2017-11-07 10:00:00 12 2 Sur -- -- 0 953.8 1.1 56
2017-11-07 09:00:00 8.9 4 Oeste 10 Nordeste 0 953.4 1 68
2017-11-07 08:00:00 8.3 7 Nordeste 13 Nordeste 0 952.9 0.6 66
2017-11-07 07:00:00 6.9 3 Norte 10 Nordeste 0 952.7 0.5 72
2017-11-07 06:00:00 7.3 0 Calma 9 Nordeste 0 952.4 -0.2 72
2017-11-07 05:00:00 8.3 6 Nordeste 11 Nordeste 0 952.3 -0.5 67
2017-11-07 04:00:00 10.3 3 Nordeste 22 Nordeste 0 952.2 -1 58
2017-11-07 03:00:00 11 10 Nordeste 21 Nordeste 0 952.6 -0.8 57
2017-11-07 02:00:00 11.2 5 Nordeste 20 Nordeste 0 952.8 -0.7 56
2017-11-07 01:00:00 11.2 5 Sudeste 13 Este 0 953.2 0.1 55
2017-11-07 00:00:00 10.9 4 Este 23 Nordeste 0 953.4 0.5 55
2017-11-06 23:00:00 11.2 5 Nordeste 21 Nordeste 0 953.5 0.5 54
2017-11-06 22:00:00 11.8 9 Nordeste 23 Este 0 953.1 0.2 54
2017-11-06 21:00:00 12.5 12 Nordeste 28 Nordeste 0 952.9 0.1 51
2017-11-06 20:00:00 10.7 8 Nordeste 15 Nordeste 0 953 0.2 59
2017-11-06 19:00:00 12.2 8 Nordeste 20 Nordeste 0 952.9 -0.1 54
2017-11-06 18:00:00 15.6 11 Nordeste 20 Nordeste 0 952.8 -0.8 39
2017-11-06 17:00:00 18 8 Este 21 Este 0 952.8 -1.4 32
2017-11-06 16:00:00 18.9 9 Sudeste 25 Sudeste 0 953 -2.1 32
2017-11-06 15:00:00 18 13 Este 29 Este 0 953.6 -2.4 32
2017-11-06 14:00:00 17.8 14 Este 27 Este 0 954.2 -2 31
2017-11-06 13:00:00 17.9 13 Sudeste 31 Este 0 955.1 -1 37
2017-11-06 12:00:00 16.5 11 Este 31 Este 0 956 0.2 39
2017-11-06 11:00:00 15.7 9 Sudeste 26 Este 0 956.2 0.8 43
2017-11-06 10:00:00 13.3 13 Este 27 Este 0 956.1 0.9 47
2017-11-06 09:00:00 12.1 12 Este 24 Este 0 955.8 0.6 50
2017-11-06 08:00:00 10.9 12 Este 24 Este 0 955.4 0.3 54
2017-11-06 07:00:00 11.4 13 Este 23 Este 0 955.2 -0.1 53
2017-11-06 06:00:00 11.5 12 Este 23 Este 0 955.2 -0.3 56
2017-11-06 05:00:00 11.7 10 Este 30 Este 0 955.1 -0.4 60
2017-11-06 04:00:00 11.7 9 Este 19 Este 0 955.3 -0.5 65
2017-11-06 03:00:00 10.9 9 Nordeste 22 Nordeste 0 955.5 -0.2 63
2017-11-06 02:00:00 11.2 14 Nordeste 29 Norte 0 955.5 -0.7 59
2017-11-06 01:00:00 11 14 Nordeste 43 Norte 0 955.8 -0.1 59
2017-11-06 00:00:00 11.6 27 Norte 44 Norte 0 955.7 0 56
2017-11-05 23:00:00 12.4 21 Nordeste 32 Nordeste 0 956.2 0.6 52
2017-11-05 22:00:00 12.6 7 Nordeste 19 Este 0 955.9 0.6 60
2017-11-05 21:00:00 13 10 Nordeste 27 Norte 0 955.7 0.7 64
2017-11-05 20:00:00 13.3 4 Este 27 Norte 0 955.6 0.6 63
2017-11-05 19:00:00 14.3 6 Este 28 Nordeste 0 955.3 0.4 60
2017-11-05 18:00:00 15.7 7 Noroeste 25 Norte 0 955 0.3 55
2017-11-05 17:00:00 16.7 14 Nordeste 35 Norte 0 955 0.2 54
2017-11-05 16:00:00 17.8 9 Nordeste 33 Norte 0 954.9 -0.5 55
2017-11-05 15:00:00 17.5 20 Norte 35 Norte 0 954.7 -0.9 61
2017-11-05 14:00:00 17.2 22 Nordeste 39 Nordeste 0 954.8 -0.7 58
2017-11-05 13:00:00 16.7 15 Norte 32 Norte 0 955.4 -0.1 64
2017-11-05 12:00:00 15.6 18 Norte 34 Norte 0.2 955.6 0.5 66
2017-11-05 11:00:00 14.4 10 Norte 28 Nordeste 0 955.5 1 73
2017-11-05 10:00:00 12.5 11 Nordeste 30 Norte 0 955.5 1.5 79
2017-11-05 09:00:00 10.9 10 Nordeste 27 Norte 0 955.1 1.4 87
2017-11-05 08:00:00 10.3 18 Nordeste 29 Nordeste 0 954.5 1.3 90
2017-11-05 07:00:00 10.5 19 Nordeste 28 Nordeste 0 954 1 90
2017-11-05 06:00:00 10.6 11 Nordeste 29 Norte 0 953.7 0.6 91
2017-11-05 05:00:00 11 16 Norte 34 Norte 0 953.2 0.3 91
2017-11-05 04:00:00 11.2 21 Norte 32 Norte 0 953 0.1 91
2017-11-05 03:00:00 11.4 15 Norte 33 Norte 0 953.1 0.6 92
2017-11-05 02:00:00 11.8 20 Norte 32 Norte 0 952.9 0.6 89
2017-11-05 01:00:00 12.1 18 Norte 33 Norte 0 952.9 1.1 89
2017-11-05 00:00:00 12.4 19 Norte 31 Norte 0 952.5 1.5 88
2017-11-04 23:00:00 13.1 19 Norte 33 Norte 0 952.3 1.9 84
2017-11-04 22:00:00 13.2 10 Noroeste 31 Norte 0 951.8 2.1 85
2017-11-04 21:00:00 13.2 15 Norte 37 Norte 0 951 1.9 83
2017-11-04 20:00:00 13.2 12 Noroeste 28 Noroeste 0 950.4 1.9 87
2017-11-04 19:00:00 13.1 8 Noroeste 21 Noroeste 0 949.7 1.8 90
2017-11-04 18:00:00 13.7 7 Noroeste 19 Noroeste 0 949.1 1.5 87
2017-11-04 17:00:00 13.7 13 Norte 30 Noroeste 0.6 948.5 0.9 89
2017-11-04 16:00:00 15.3 15 Noroeste 38 Noroeste 0 947.9 0.3 77
2017-11-04 15:00:00 15.4 9 Oeste 35 Noroeste 0.2 947.6 -0.5 81
2017-11-04 14:00:00 16 11 Noroeste 36 Oeste 0 947.6 -0.2 67
2017-11-04 13:00:00 16.6 16 Oeste 35 Oeste 0 947.6 0.2 66
2017-11-04 12:00:00 14.9 17 Noroeste 33 Noroeste 0 948.1 1.5 76
2017-11-04 11:00:00 13.6 18 Noroeste 34 Noroeste 0.2 947.8 2.1 83
2017-11-04 10:00:00 12.8 9 Oeste 17 Oeste 0 947.4 2.1 94
2017-11-04 09:00:00 12.4 7 Oeste 17 Noroeste 0 946.6 2 95
2017-11-04 08:00:00 12.4 7 Oeste 26 Noroeste 0.2 945.7 0.9 95
2017-11-04 07:00:00 12.8 8 Oeste 19 Oeste 0 945.3 0.3 96
2017-11-04 06:00:00 12.8 8 Oeste 23 Oeste 0 944.6 -0.9 96
2017-11-04 05:00:00 12.8 7 Oeste 24 Oeste 0 944.8 -1.2 97
2017-11-04 04:00:00 12.8 8 Sudoeste 17 Oeste 0 945 -1.4 98
2017-11-04 03:00:00 12.6 11 Sudoeste 20 Oeste 0 945.5 -1.1 97
2017-11-04 02:00:00 12.7 7 Sudoeste 27 Oeste 0.2 946 -0.7 96
2017-11-04 01:00:00 12.8 13 Oeste 32 Oeste 0.4 946.4 -0.2 96
2017-11-04 00:00:00 13.3 16 Sudoeste 35 Sudoeste 0.6 946.6 0.3 96
2017-11-03 23:00:00 13.5 9 Sudoeste 34 Sur 0 946.7 0.3 94
2017-11-03 22:00:00 13.5 10 Sudoeste 22 Sudoeste 0 946.6 0.4 92
2017-11-03 21:00:00 13.8 9 Sudoeste 19 Sudoeste 0 946.3 0.3 90
2017-11-03 20:00:00 14.5 8 Sudoeste 22 Sudoeste 0 946.4 0.5 86
2017-11-03 19:00:00 15.3 13 Sudoeste 29 Sudoeste 0 946.2 0.2 76
2017-11-03 18:00:00 16.3 12 Sudoeste 30 Sur 0 946 -0.3 80
2017-11-03 17:00:00 17 19 Sudoeste 33 Sudeste 0 945.9 -1.1 64
2017-11-03 16:00:00 17.7 11 Sur 27 Sudoeste 0 946 -1.7 67
2017-11-03 15:00:00 18.6 9 Sur 23 Sudoeste 0 946.3 -2.1 60
2017-11-03 14:00:00 18.4 9 Sudoeste 22 Sudoeste 0 947 -1.6 61
2017-11-03 13:00:00 19 8 Sudeste 17 Sur 0 947.7 -0.8 62
2017-11-03 12:00:00 18.3 9 Sur 16 Sur 0.2 948.4 0.3 64
2017-11-03 11:00:00 16.3 4 Sur 9 Sur 0 948.6 0.8 81
2017-11-03 10:00:00 13.5 2 Sudeste 5 Norte 0 948.5 0.9 96
2017-11-03 09:00:00 12.8 3 Nordeste 7 Nordeste 0 948.1 0.5 96
2017-11-03 08:00:00 12.6 5 Nordeste 7 Nordeste 0 947.8 0.1 96
2017-11-03 07:00:00 13.5 3 Oeste 14 Oeste 0 947.6 -0.4 95
2017-11-03 06:00:00 14 6 Oeste 23 Oeste 0 947.6 -0.5 96
2017-11-03 05:00:00 13.9 9 Oeste 23 Oeste 0.2 947.7 -0.6 96
2017-11-03 04:00:00 14.2 15 Oeste 31 Oeste 3.6 948 -0.9 95
2017-11-03 03:00:00 14.4 10 Oeste 23 Sur 0 948.1 -1.5 96
2017-11-03 02:00:00 14.4 7 Sudeste 19 Sur 0.2 948.3 -1.3 97
2017-11-03 01:00:00 14.3 9 Sudoeste 18 Sudoeste 5.2 948.9 -1 94
2017-11-03 00:00:00 14.7 8 Sudoeste 18 Sur 0 949.6 0.2 92
2017-11-02 23:00:00 14.9 13 Sudoeste 19 Sudoeste 0 949.6 0.1 93
2017-11-02 22:00:00 15 11 Sudoeste 19 Sudoeste 0 949.9 0.5 92
2017-11-02 21:00:00 15.2 6 Sudoeste 17 Sudoeste 0 949.4 0.1 89
2017-11-02 20:00:00 15.6 6 Sudoeste 22 Sur 0 949.5 0 85
2017-11-02 19:00:00 15.8 11 Sur 28 Sudoeste 0 949.4 -0.2 82
2017-11-02 18:00:00 16.4 9 Sudoeste 28 Sudoeste 0 949.3 -0.7 78
2017-11-02 17:00:00 16.9 12 Sudoeste 26 Sudoeste 0 949.5 -0.8 72
2017-11-02 16:00:00 17 12 Sudoeste 25 Sudoeste 0 949.6 -1.5 73
2017-11-02 15:00:00 16.7 16 Sudoeste 33 Sudoeste 0 950 -1.7 73
2017-11-02 14:00:00 16.8 13 Sur 29 Sudoeste 0 950.3 -1.4 78
2017-11-02 13:00:00 15.8 10 Sudoeste 29 Sur 0 951.1 -0.4 87
2017-11-02 12:00:00 14.7 13 Sur 28 Sur 0.2 951.7 0.2 91
2017-11-02 11:00:00 14.4 16 Sudoeste 40 Sur 0 951.7 0.6 95
2017-11-02 10:00:00 14.7 20 Sur 34 Sur 0 951.5 0.4 91
2017-11-02 09:00:00 14.4 7 Sur 26 Sur 0 951.5 0.5 93
2017-11-02 08:00:00 14.3 8 Sudoeste 35 Sur 0 951.1 0.1 93
2017-11-02 07:00:00 14.5 11 Sur 36 Sudeste 0 951.1 -0.1 91
2017-11-02 06:00:00 14.6 11 Sur 45 Sur 0 951 -0.3 90
2017-11-02 05:00:00 14.6 9 Sudeste 39 Sur 0 951 -0.6 90
2017-11-02 04:00:00 14.8 6 Sur 24 Sur 0 951.2 -0.8 90
2017-11-02 03:00:00 14.9 9 Sur 26 Sudoeste 0 951.3 -0.9 90
2017-11-02 02:00:00 15 8 Sur 32 Sur 0 951.6 -0.5 87
2017-11-02 01:00:00 15.2 8 Sur 27 Sudoeste 0 952 0.1 86
2017-11-02 00:00:00 15.8 10 Sudoeste 24 Sudoeste 0 952.2 0.7 89
2017-11-01 23:00:00 16.1 11 Sudoeste 27 Sudoeste 0 952.1 0.3 91
2017-11-01 22:00:00 16.3 13 Sudoeste 24 Sudoeste 0 951.9 0.4 91
2017-11-01 21:00:00 16.3 12 Sudoeste 21 Sudoeste 0 951.5 0.2 89
2017-11-01 20:00:00 16.8 12 Sudoeste 24 Sudoeste 0 951.8 0.7 84
2017-11-01 19:00:00 17.6 12 Sudoeste 29 Sudoeste 0 951.5 0.1 79
2017-11-01 18:00:00 18.4 13 Sudoeste 27 Sudoeste 0 951.3 -0.5 71
2017-11-01 17:00:00 20.3 10 Sudoeste 26 Sur 0 951.1 -1 54
2017-11-01 16:00:00 20.7 15 Sudoeste 30 Sudoeste 0 951.4 -1.3 51
2017-11-01 15:00:00 20 15 Sudoeste 33 Sudoeste 0 951.8 -1.6 52
2017-11-01 14:00:00 21.5 18 Sudoeste 34 Sur 0 952.1 -1.7 44
2017-11-01 13:00:00 19.8 16 Sur 35 Sur 0 952.7 -0.8 54
2017-11-01 12:00:00 19.7 15 Sur 30 Sur 0 953.4 0.3 55
2017-11-01 11:00:00 18.6 11 Sur 22 Sur 0 953.8 1.1 59
2017-11-01 10:00:00 16.6 8 Sudeste 19 Sudeste 0 953.5 1.2 69
2017-11-01 09:00:00 14.5 8 Sudeste 14 Sudeste 0 953.1 1 80
2017-11-01 08:00:00 12 7 Este 10 Este 0 952.7 0.5 91
2017-11-01 07:00:00 11.7 7 Este 10 Este 0 952.3 -0.1 92
2017-11-01 06:00:00 11.7 8 Este 11 Este 0 952.1 -0.6 91
2017-11-01 05:00:00 12.2 8 Este 10 Este 0 952.2 -0.5 89
2017-11-01 04:00:00 12.4 6 Nordeste 12 Este 0 952.4 -0.6 87
2017-11-01 03:00:00 12.2 9 Nordeste 14 Nordeste 0 952.7 -0.6 87
2017-11-01 02:00:00 12.3 4 Este 9 Nordeste 0 952.7 -0.5 92
2017-11-01 01:00:00 12.7 3 Noroeste 11 Nordeste 0 953 0.2 89
2017-11-01 00:00:00 13.2 5 Nordeste 11 Nordeste 0 953.3 0.6 85
2017-10-31 23:00:00 14.2 8 Nordeste 12 Nordeste 0 953.2 0.7 70
2017-10-31 22:00:00 14.2 7 Nordeste 12 Nordeste 0 952.8 0.6 66
2017-10-31 21:00:00 15.5 7 Nordeste 13 Este 0 952.7 0.8 62
2017-10-31 20:00:00 16.2 7 Nordeste 10 Este 0 952.5 1 60
2017-10-31 19:00:00 17.3 3 Sudeste 14 Sudoeste 0 952.2 0.8 56
2017-10-31 18:00:00 20.7 11 Sudoeste 16 Sudoeste 0 951.9 0.5 44
2017-10-31 17:00:00 22.8 8 Sudoeste 19 Sudoeste 0 951.5 -0.2 39
2017-10-31 16:00:00 23.1 8 Sudeste 21 Sur 0 951.4 -0.8 40
2017-10-31 15:00:00 23.6 9 Sur 25 Sur 0 951.4 -1.1 42
2017-10-31 14:00:00 22.9 8 Sur 20 Sur 0 951.7 -1 41
2017-10-31 13:00:00 22.3 8 Sudeste 20 Sur 0 952.2 -0.4 45
2017-10-31 12:00:00 20.6 5 Sudeste 17 Sur 0 952.5 0.6 50
2017-10-31 11:00:00 19.2 8 Sur 16 Sur 0 952.7 1.6 52
2017-10-31 10:00:00 17.1 6 Sudeste 13 Sur 0 952.6 2.1 60
2017-10-31 09:00:00 13.9 3 Este 9 Este 0 951.9 1.6 68
2017-10-31 08:00:00 11.5 3 Nordeste 9 Nordeste 0 951.1 1.1 77
2017-10-31 07:00:00 11.9 4 Nordeste 11 Nordeste 0 950.5 0.6 75
2017-10-31 06:00:00 12.3 0 Calma 9 Nordeste 0 950.3 0.5 70
2017-10-31 05:00:00 13.1 3 Este 10 Nordeste 0 950 0.2 64
2017-10-31 04:00:00 14.3 6 Nordeste 11 Este 0 949.9 -0.1 56
2017-10-31 03:00:00 14.7 8 Nordeste 12 Este 0 949.8 -0.3 50
2017-10-31 02:00:00 15.2 6 Nordeste 11 Este 0 949.8 -0.4 49
2017-10-31 01:00:00 15.3 5 Nordeste 10 Este 0 950 0 49
2017-10-31 00:00:00 15.2 5 Nordeste 9 Nordeste 0 950.1 0.2 52
2017-10-30 23:00:00 14.9 4 Nordeste 13 Nordeste 0 950.2 0.6 63
2017-10-30 22:00:00 14.4 5 Nordeste 10 Nordeste 0 950 0.8 67
2017-10-30 21:00:00 15.4 4 Nordeste 9 Nordeste 0 949.9 1.3 73
2017-10-30 20:00:00 16.4 2 Sur 12 Nordeste 0 949.6 1.2 55
2017-10-30 19:00:00 19.1 4 Norte 10 Sudoeste 0 949.2 0.8 43
2017-10-30 18:00:00 22.1 8 Sudoeste 17 Sudoeste 0 948.6 0.1 35
2017-10-30 17:00:00 24.9 9 Sudoeste 21 Sudoeste 0 948.4 -0.6 26
2017-10-30 16:00:00 25.5 10 Sur 18 Sur 0 948.4 -1.3 23
2017-10-30 15:00:00 25.5 10 Sur 22 Sudoeste 0 948.5 -1.9 24
2017-10-30 14:00:00 24.7 5 Nordeste 19 Sur 0 949 -1.5 26
2017-10-30 13:00:00 24.7 6 Sur 18 Sudoeste 0 949.7 -0.8 25
2017-10-30 12:00:00 23.8 9 Sur 16 Sur 0 950.4 0.2 26
2017-10-30 11:00:00 21.6 7 Sudoeste 12 Sudoeste 0 950.5 0.7 29
2017-10-30 10:00:00 18.6 4 Sudoeste 9 Sudoeste 0 950.5 0.9 33
2017-10-30 09:00:00 16.3 2 Nordeste 10 Nordeste 0 950.2 0.5 41
2017-10-30 08:00:00 15 7 Nordeste 13 Nordeste 0 949.8 0 39
2017-10-30 07:00:00 15.7 8 Nordeste 12 Nordeste 0 949.6 -0.3 35
2017-10-30 06:00:00 15.9 8 Nordeste 11 Este 0 949.7 -0.7 35
2017-10-30 05:00:00 16.2 8 Nordeste 12 Nordeste 0 949.8 -0.9 33
2017-10-30 04:00:00 15.9 5 Nordeste 10 Nordeste 0 949.9 -1.4 32
2017-10-30 03:00:00 16.2 5 Nordeste 11 Nordeste 0 950.4 -1.2 32
2017-10-30 02:00:00 16.8 8 Nordeste 12 Nordeste 0 950.7 -1.2 31
2017-10-30 01:00:00 16.7 7 Nordeste 10 Nordeste 0 951.3 -0.9 39
2017-10-30 00:00:00 15.4 3 Norte 10 Nordeste 0 951.6 -0.7 48
2017-10-29 23:00:00 15.2 6 Nordeste 14 Nordeste 0 951.9 -0.3 52
2017-10-29 22:00:00 16.4 7 Nordeste 11 Nordeste 0 952.2 0.3 56
2017-10-29 21:00:00 16.8 4 Norte 10 Noroeste 0 952.3 0.5 58
2017-10-29 20:00:00 17.8 5 Noroeste 12 Nordeste 0 952.2 0.3 47
2017-10-29 19:00:00 20.3 6 Nordeste 9 Nordeste 0 951.9 -0.4 37
2017-10-29 18:00:00 25.1 2 Sur 13 Nordeste 0 951.8 -1 28
2017-10-29 17:00:00 26.7 6 Norte 15 Noroeste 0 951.9 -1.5 22
2017-10-29 16:00:00 27.2 7 Norte 20 Norte 0 952.3 -1.9 21
2017-10-29 15:00:00 26.6 6 Noroeste 18 Este 0 952.8 -2.2 24
2017-10-29 14:00:00 27.1 8 Sudeste 18 Sudeste 0 953.4 -1.7 22
2017-10-29 13:00:00 26.2 8 Sudoeste 15 Sudoeste 0 954.2 -0.9 35
2017-10-29 12:00:00 24.2 8 Sur 15 Sur 0 955 0.2 40
2017-10-29 11:00:00 22.4 7 Sudoeste 13 Sur 0 955.1 0.4 44
2017-10-29 10:00:00 19.8 5 Sur 10 Sur 0 955.1 0.6 47
2017-10-29 09:00:00 16.6 2 Sudeste 8 Nordeste 0 954.8 0.5 49
2017-10-29 08:00:00 14 2 Este 6 Nordeste 0 954.7 0.4 49
2017-10-29 07:00:00 13.5 2 Norte 7 Noroeste 0 954.5 0.2 51
2017-10-29 06:00:00 14 5 Nordeste 10 Nordeste 0 954.3 -0.1 49
2017-10-29 05:00:00 15.7 4 Nordeste 12 Nordeste 0 954.3 -0.5 43
2017-10-29 04:00:00 16.7 5 Nordeste 7 Nordeste 0 954.3 -0.7 41
2017-10-29 03:00:00 17.7 3 Oeste 10 Nordeste 0 954.4 -0.8 40
2017-10-29 02:00:00 17.6 6 Nordeste 9 Nordeste 0 954.8 -0.7 42
2017-10-29 01:00:00 17.5 4 Nordeste 10 Nordeste 0 955.2 -0.1 39
2017-10-29 00:00:00 17.5 6 Nordeste 10 Nordeste 0 955.5 0.2 39
2017-10-28 23:00:00 17.7 5 Norte 9 Nordeste 0 955.5 0.4 38
2017-10-28 22:00:00 18.1 7 Nordeste 11 Nordeste 0 955.3 0.6 40
2017-10-28 21:00:00 19.4 4 Norte 10 Sudoeste 0 955.3 0.9 38
2017-10-28 20:00:00 21.9 4 Noroeste 13 Oeste 0 955.1 0.8 29
2017-10-28 19:00:00 25.3 8 Nordeste 20 Nordeste 0 954.7 0.2 23
2017-10-28 18:00:00 27.9 11 Nordeste 21 Sudeste 0 954.4 -0.7 17
2017-10-28 17:00:00 29.5 12 Sur 25 Sur 0 954.3 -1.5 15
2017-10-28 16:00:00 30.6 10 Sudeste 26 Sur 0 954.5 -1.9 14
2017-10-28 15:00:00 29.2 9 Este 20 Nordeste 0 955.1 -1.6 14
2017-10-28 14:00:00 28.3 6 Este 23 Nordeste 0 955.8 -1 16
2017-10-28 13:00:00 27.5 12 Sudeste 25 Este 0 956.4 -0.2 15
2017-10-28 12:00:00 26.1 9 Este 28 Nordeste 0 956.7 0.3 18
2017-10-28 11:00:00 23.1 13 Nordeste 27 Norte 0 956.8 0.7 26
2017-10-28 10:00:00 20.6 5 Nordeste 9 Nordeste 0 956.6 0.5 33
2017-10-28 09:00:00 18.9 9 Nordeste 15 Nordeste 0 956.4 0.4 34
2017-10-28 08:00:00 19.1 4 Este 14 Nordeste 0 956.1 -0.1 32
2017-10-28 07:00:00 20.2 11 Nordeste 24 Nordeste 0 956.1 -0.4 30
2017-10-28 06:00:00 21.5 10 Nordeste 21 Nordeste 0 956 -0.9 27
2017-10-28 05:00:00 21.9 7 Este 26 Nordeste 0 956.2 -1.2 30
2017-10-28 04:00:00 22.5 11 Este 24 Este 0 956.5 -1.3 28
2017-10-28 03:00:00 21.8 8 Este 28 Norte 0 956.9 -1.3 29
2017-10-28 02:00:00 21.6 11 Nordeste 26 Norte 0 957.4 -1.2 31
2017-10-28 01:00:00 22.1 8 Este 22 Nordeste 0 957.8 -0.8 30
2017-10-28 00:00:00 23 13 Este 26 Nordeste 0 958.2 -0.4 29
2017-10-27 23:00:00 22.3 18 Nordeste 29 Nordeste 0 958.6 0.2 30
2017-10-27 22:00:00 22.5 16 Nordeste 27 Norte 0 958.6 0.2 29
2017-10-27 21:00:00 22.7 18 Nordeste 27 Nordeste 0 958.6 0.3 27
2017-10-27 20:00:00 23.5 17 Nordeste 23 Nordeste 0 958.4 0.1 22
2017-10-27 19:00:00 26.7 13 Norte 19 Nordeste 0 958.4 -0.1 18
2017-10-27 18:00:00 29.5 8 Nordeste 19 Este 0 958.3 -0.8 19
2017-10-27 17:00:00 30.7 6 Sudeste 21 Nordeste 0 958.3 -1.4 19
2017-10-27 16:00:00 30 9 Este 19 Este 0 958.5 -1.7 20
2017-10-27 15:00:00 30.3 10 Sudeste 21 Sudeste 0 959.1 -1.2 15
2017-10-27 14:00:00 29.2 11 Sudeste 21 Sur 0 959.7 -0.6 17
2017-10-27 13:00:00 27.5 12 Sudeste 23 Sudeste 0 960.2 0.4 22
2017-10-27 12:00:00 25.9 10 Sudeste 24 Sudeste 0 960.3 1.2 28
2017-10-27 11:00:00 22.7 5 Sudeste 21 Este 0 960.3 1.4 32
2017-10-27 10:00:00 21 10 Este 22 Este 0 959.8 1.1 38
2017-10-27 09:00:00 19.6 12 Este 22 Este 0 959.1 0.4 41
2017-10-27 08:00:00 18.5 6 Este 17 Este 0 958.9 0.2 43
2017-10-27 07:00:00 18.5 8 Sudeste 19 Sudeste 0 958.7 -0.1 42
2017-10-27 06:00:00 17.1 3 Sur 5 Noroeste 0 958.7 -0.2 44
2017-10-27 05:00:00 17.9 0 Calma 12 Sudeste 0 958.7 -0.3 41
2017-10-27 04:00:00 19.5 6 Este 19 Este 0 958.8 -0.4 37
2017-10-27 03:00:00 22 9 Este 25 Este 0 958.9 -0.6 31
2017-10-27 02:00:00 22.8 13 Este 29 Este 0 959 -0.5 29
2017-10-27 01:00:00 22.8 13 Nordeste 26 Nordeste 0 959.2 -0.1 29
2017-10-27 00:00:00 21.7 12 Este 24 Nordeste 0 959.5 0.4 31
2017-10-26 23:00:00 21 14 Nordeste 20 Nordeste 0 959.5 0.9 35
2017-10-26 22:00:00 20.6 6 Este 12 Nordeste 0 959.3 1.2 38
2017-10-26 21:00:00 20.6 8 Nordeste 12 Nordeste 0 959.1 1.1 39
2017-10-26 20:00:00 22 9 Nordeste 12 Nordeste 0 958.6 0.5 32
2017-10-26 19:00:00 26.4 5 Sudeste 18 Sudeste 0 958.1 0 21
2017-10-26 18:00:00 28.1 9 Sudeste 23 Sudeste 0 958 -0.5 18
2017-10-26 17:00:00 28.7 8 Sudeste 23 Sudeste 0 958.1 -0.9 17
2017-10-26 16:00:00 28.8 10 Sudeste 22 Sudeste 0 958.1 -1.3 19
2017-10-26 15:00:00 27.4 7 Este 23 Sudeste 0 958.5 -0.9 23
2017-10-26 14:00:00 26.7 11 Sudeste 26 Sudeste 0 959 -0.3 28
2017-10-26 13:00:00 25.9 13 Sudeste 26 Sudeste 0 959.4 0.5 31
2017-10-26 12:00:00 24.1 8 Sudeste 26 Sudeste 0 959.4 1 33
2017-10-26 11:00:00 21.5 8 Sudeste 26 Este 0 959.3 1.3 34
2017-10-26 10:00:00 19.9 11 Este 21 Sudeste 0 958.9 1.2 35
2017-10-26 09:00:00 18.6 11 Este 22 Este 0 958.4 1 37
2017-10-26 08:00:00 18.3 6 Este 15 Este 0 958 0.6 39
2017-10-26 07:00:00 17.8 10 Este 17 Este 0 957.7 0.1 42
2017-10-26 06:00:00 18.1 7 Este 14 Sudeste 0 957.4 -0.4 37
2017-10-26 05:00:00 17.9 7 Nordeste 11 Nordeste 0 957.4 -0.6 38
2017-10-26 04:00:00 17.2 8 Nordeste 12 Este 0 957.6 -0.6 42
2017-10-26 03:00:00 17.3 9 Nordeste 13 Nordeste 0 957.8 -0.5 47
2017-10-26 02:00:00 16.3 6 Nordeste 9 Nordeste 0 958 -0.2 51
2017-10-26 01:00:00 16.4 6 Nordeste 13 Nordeste 0 958.2 0.4 59
2017-10-26 00:00:00 16.9 8 Nordeste 13 Nordeste 0 958.3 0.9 64